Balkar Trust — 3FXS7 — position and weather

sailwx.info

Track history (hours):
 
Tides and Currents Weather Stations Pressure Air Temp Water Temp Dewpoint Dewpoint Depression Visibility Wind Speed Wind Dir Waves Ship Positions

Balkar Trust

Last reported at 2016-Dec-10 19:17 UTC. Time now 2016-Dec-11 08:11 UTC.
Position N 36°16' W 002°33'.

Length 185 m; draft 10.2 m.

Type: Cargo ship. MMSI: 372927000.

Date/timePositionNaut miles runAvg speedWind from/ knotsBaromVisibWave heightAir tempDewpointWater temp
2016-Dec-10 19:17N 36°16' W 002°33'1011.6
2016-Dec-10 18:26N 36°15' W 002°45'1311.4
2016-Dec-10 17:16N 36°14' W 003°01'11012.7
2016-Dec-10 08:33N 36°01' W 005°17'7 0.6
2016-Dec-09 21:31N 36°06' W 005°21'9 8.8
2016-Dec-09 20:33N 36°06' W 005°11'2 1.8
2016-Dec-09 19:33N 36°08' W 005°12'2 1.5
2016-Dec-09 18:33N 36°08' W 005°13'1 1.0
2016-Dec-09 17:33N 36°08' W 005°12'1 0.9
2016-Dec-09 16:33N 36°07' W 005°11'1 1.0
2016-Dec-09 15:33N 36°07' W 005°10'7 0.4
2016-Dec-08 21:33N 36°10' W 005°02'2 1.2
2016-Dec-08 20:14N 36°09' W 005°01'2 2.8
2016-Dec-08 19:29N 36°10' W 005°03'3 3.2
2016-Dec-08 18:31N 36°10' W 005°07'1 1.2
2016-Dec-08 17:31N 36°09' W 005°06'3 2.9
2016-Dec-08 16:33N 36°10' W 005°09'4 4.3
2016-Dec-08 15:33N 36°08' W 005°14'1 1.5
2016-Dec-08 14:33N 36°08' W 005°12'1 1.3
2016-Dec-08 13:30N 36°07' W 005°11'1 1.1
2016-Dec-08 12:33N 36°07' W 005°10'5 4.5
2016-Dec-08 11:33N 36°05' W 005°15'1010.0
2016-Dec-08 10:33N 35°59' W 005°25'  
Track history (hours):
 
Tides and Currents Weather Stations Pressure Air Temp Water Temp Dewpoint Dewpoint Depression Visibility Wind Speed Wind Dir Waves Ship Positions

Balkar Trust

Last reported at 2016-Dec-10 19:17 UTC. Time now 2016-Dec-11 08:11 UTC.
Position N 36°16' W 002°33'.

Length 185 m; draft 10.2 m.

Type: Cargo ship. MMSI: 372927000.

Date/timePositionNaut miles runAvg speedWind from/ knotsBaromVisibWave heightAir tempDewpointWater temp
2016-Dec-10 19:17N 36°16' W 002°33'1011.6
2016-Dec-10 18:26N 36°15' W 002°45'1311.4
2016-Dec-10 17:16N 36°14' W 003°01'11012.7
2016-Dec-10 08:33N 36°01' W 005°17'7 0.6
2016-Dec-09 21:31N 36°06' W 005°21'9 8.8
2016-Dec-09 20:33N 36°06' W 005°11'2 1.8
2016-Dec-09 19:33N 36°08' W 005°12'2 1.5
2016-Dec-09 18:33N 36°08' W 005°13'1 1.0
2016-Dec-09 17:33N 36°08' W 005°12'1 0.9
2016-Dec-09 16:33N 36°07' W 005°11'1 1.0
2016-Dec-09 15:33N 36°07' W 005°10'7 0.4
2016-Dec-08 21:33N 36°10' W 005°02'2 1.2
2016-Dec-08 20:14N 36°09' W 005°01'2 2.8
2016-Dec-08 19:29N 36°10' W 005°03'3 3.2
2016-Dec-08 18:31N 36°10' W 005°07'1 1.2
2016-Dec-08 17:31N 36°09' W 005°06'3 2.9
2016-Dec-08 16:33N 36°10' W 005°09'4 4.3
2016-Dec-08 15:33N 36°08' W 005°14'1 1.5
2016-Dec-08 14:33N 36°08' W 005°12'1 1.3
2016-Dec-08 13:30N 36°07' W 005°11'1 1.1
2016-Dec-08 12:33N 36°07' W 005°10'5 4.5
2016-Dec-08 11:33N 36°05' W 005°15'1010.0
2016-Dec-08 10:33N 35°59' W 005°25'  

Dump ship's entire track history